createdAt,value
2018-09-25T00:00:51.752Z,0.00
2018-09-25T00:06:00.441Z,0.00
2018-09-25T00:11:09.195Z,0.00
2018-09-25T00:16:17.898Z,0.00
2018-09-25T00:21:26.727Z,0.00
2018-09-25T00:26:35.492Z,0.00
2018-09-25T00:31:44.244Z,0.00
2018-09-25T00:36:52.944Z,0.00
2018-09-25T00:42:01.665Z,0.00
2018-09-25T00:47:10.492Z,0.00
2018-09-25T00:52:19.219Z,0.00
2018-09-25T00:57:27.895Z,0.00
2018-09-25T01:02:36.646Z,1.00
2018-09-25T01:07:45.273Z,0.00
2018-09-25T01:12:54.080Z,0.00
2018-09-25T01:18:02.808Z,0.00
2018-09-25T01:23:11.416Z,0.00
2018-09-25T01:28:20.079Z,0.00
2018-09-25T01:33:28.712Z,0.00
2018-09-25T01:38:37.662Z,0.00
2018-09-25T01:43:46.402Z,0.00
2018-09-25T01:48:55.077Z,0.00
2018-09-25T01:54:03.803Z,0.00
2018-09-25T01:59:12.831Z,0.00
2018-09-25T02:04:21.596Z,0.00
2018-09-25T02:09:30.215Z,0.00
2018-09-25T02:14:38.875Z,0.00
2018-09-25T02:19:47.681Z,0.00
2018-09-25T02:24:56.541Z,0.00
2018-09-25T02:30:05.241Z,0.00
2018-09-25T02:35:14.138Z,0.00
2018-09-25T02:40:22.986Z,0.00
2018-09-25T02:45:31.657Z,0.00
2018-09-25T02:50:40.415Z,0.00
2018-09-25T02:55:49.221Z,0.00
2018-09-25T03:00:57.862Z,0.00
2018-09-25T03:06:06.747Z,0.00
2018-09-25T03:11:15.437Z,0.00
2018-09-25T03:16:24.149Z,0.00
2018-09-25T03:21:33.053Z,0.00
2018-09-25T03:26:41.863Z,0.00
2018-09-25T03:31:50.544Z,0.00
2018-09-25T03:36:59.264Z,0.00
2018-09-25T03:42:08.125Z,0.00
2018-09-25T03:47:16.782Z,0.00
2018-09-25T03:52:25.478Z,0.00
2018-09-25T03:57:34.144Z,0.00
2018-09-25T04:02:42.847Z,0.00
2018-09-25T04:07:51.726Z,0.00
2018-09-25T04:13:00.522Z,0.00
2018-09-25T04:18:09.195Z,0.00
2018-09-25T04:23:17.934Z,0.00
2018-09-25T04:28:26.805Z,0.00
2018-09-25T04:33:35.459Z,0.00
2018-09-25T04:38:44.234Z,0.00
2018-09-25T04:43:53.036Z,0.00
2018-09-25T04:49:01.676Z,0.00
2018-09-25T04:54:10.290Z,0.00
2018-09-25T04:59:19.139Z,0.00
2018-09-25T05:04:27.813Z,0.00
2018-09-25T05:09:36.441Z,0.00
2018-09-25T05:14:45.197Z,0.00
2018-09-25T05:19:53.975Z,0.00
2018-09-25T05:25:02.786Z,0.00
2018-09-25T05:30:12.040Z,0.00
2018-09-25T05:35:20.731Z,0.00
2018-09-25T05:40:29.371Z,0.00
2018-09-25T05:45:38.188Z,0.00
2018-09-25T05:50:46.946Z,0.00
2018-09-25T05:55:55.607Z,0.00
2018-09-25T06:01:04.441Z,0.00
2018-09-25T06:06:13.271Z,0.00
2018-09-25T06:11:21.964Z,0.00
2018-09-25T06:16:30.723Z,0.00
2018-09-25T06:21:39.690Z,0.00
2018-09-25T06:26:48.362Z,0.00
2018-09-25T06:31:57.191Z,0.00
2018-09-25T06:37:06.151Z,0.00
2018-09-25T06:42:14.888Z,1.00
2018-09-25T06:47:23.597Z,2.75
2018-09-25T06:52:32.328Z,2.00
2018-09-25T06:57:40.945Z,1.00
2018-09-25T07:02:49.721Z,2.00
2018-09-25T07:07:58.406Z,1.50
2018-09-25T07:13:07.194Z,1.00
2018-09-25T07:18:16.005Z,1.25
2018-09-25T07:23:25.454Z,1.00
2018-09-25T07:28:34.424Z,1.80
2018-09-25T07:33:43.110Z,1.00
2018-09-25T07:38:51.805Z,2.25
2018-09-25T07:44:00.444Z,1.20
2018-09-25T07:49:09.198Z,1.00
2018-09-25T07:54:17.895Z,1.00
2018-09-25T07:59:26.541Z,2.00
2018-09-25T08:04:35.257Z,1.00
2018-09-25T08:09:43.936Z,1.25
2018-09-25T08:14:52.860Z,1.00
2018-09-25T08:20:01.454Z,1.00
2018-09-25T08:25:10.620Z,1.75
2018-09-25T08:30:19.266Z,1.20
2018-09-25T08:35:27.972Z,0.40
2018-09-25T08:40:36.641Z,1.00
2018-09-25T08:45:45.374Z,1.00
2018-09-25T08:50:53.992Z,1.00
2018-09-25T08:56:02.859Z,1.00
2018-09-25T09:01:11.794Z,1.00
2018-09-25T09:06:20.439Z,1.40
2018-09-25T09:11:29.219Z,1.00
2018-09-25T09:16:38.004Z,1.00
2018-09-25T09:21:46.716Z,1.00
2018-09-25T09:26:55.351Z,2.00
2018-09-25T09:32:04.096Z,1.50
2018-09-25T09:37:12.995Z,0.60
2018-09-25T09:42:21.837Z,1.40
2018-09-25T09:47:30.704Z,0.00
2018-09-25T09:52:39.471Z,2.00
2018-09-25T09:57:48.199Z,0.80
2018-09-25T10:14:13.023Z,1.00
2018-09-25T10:19:21.881Z,1.00
2018-09-25T10:24:30.734Z,1.00
2018-09-25T10:29:39.499Z,0.00
2018-09-25T10:34:48.381Z,0.50
2018-09-25T10:39:59.107Z,0.60
2018-09-25T10:45:07.869Z,0.20
2018-09-25T10:50:31.304Z,0.00
2018-09-25T10:55:40.116Z,1.00
2018-09-25T11:00:49.009Z,1.00
2018-09-25T11:05:57.865Z,1.00
2018-09-25T11:11:06.523Z,0.00
2018-09-25T11:16:15.396Z,1.00
2018-09-25T11:21:24.311Z,0.00
2018-09-25T11:32:03.865Z,0.00
2018-09-25T11:37:12.895Z,1.00
2018-09-25T12:33:03.160Z,0.00
2018-09-25T12:38:11.891Z,1.00
2018-09-25T12:43:27.552Z,1.00
2018-09-25T12:48:42.247Z,1.00
2018-09-25T12:53:57.448Z,0.00
2018-09-25T12:59:06.574Z,1.00
2018-09-25T13:04:15.285Z,0.00
2018-09-25T13:15:01.340Z,0.80
2018-09-25T13:20:10.089Z,1.00
2018-09-25T13:25:19.089Z,1.00
2018-09-25T13:30:27.960Z,1.00
2018-09-25T13:35:36.658Z,1.00
2018-09-25T13:40:45.465Z,1.00
2018-09-25T13:45:54.268Z,1.00
2018-09-25T13:51:03.119Z,1.00
2018-09-25T13:56:12.023Z,2.00
2018-09-25T14:01:20.919Z,1.00
2018-09-25T14:06:29.898Z,0.00
2018-09-25T14:11:38.665Z,0.50
2018-09-25T14:16:47.487Z,1.00
2018-09-25T14:21:56.370Z,0.50
2018-09-25T14:27:05.603Z,0.75
2018-09-25T14:32:14.292Z,0.20
2018-09-25T14:37:22.969Z,1.00
2018-09-25T14:42:31.664Z,0.00
2018-09-25T14:47:40.901Z,0.00
2018-09-25T14:52:49.659Z,0.00
2018-09-25T14:57:58.303Z,0.00
2018-09-25T15:08:44.924Z,0.00
2018-09-25T15:13:53.665Z,0.00
2018-09-25T15:19:02.359Z,0.00
2018-09-25T15:24:11.120Z,0.00
2018-09-25T15:29:19.951Z,0.80
2018-09-25T15:34:28.651Z,0.00
2018-09-25T15:39:37.559Z,0.00
2018-09-25T15:44:46.326Z,0.00
2018-09-25T15:49:55.135Z,0.00
2018-09-25T15:55:03.967Z,0.00
2018-09-25T16:00:13.241Z,0.00
2018-09-25T16:05:21.898Z,0.00
2018-09-25T16:10:30.552Z,0.00
2018-09-25T16:15:39.282Z,0.75
2018-09-25T16:20:47.963Z,0.00
2018-09-25T16:25:56.818Z,0.75
2018-09-25T16:31:05.753Z,0.00
2018-09-25T16:36:14.391Z,0.75
2018-09-25T16:41:23.600Z,0.75
2018-09-25T16:46:32.424Z,0.00
2018-09-25T16:51:41.965Z,1.20
2018-09-25T17:02:30.612Z,0.00
2018-09-25T17:07:43.675Z,1.00
2018-09-25T17:12:52.467Z,1.00
2018-09-25T17:18:01.327Z,1.00
2018-09-25T17:23:10.299Z,2.00
2018-09-25T17:28:19.293Z,2.00
2018-09-25T17:33:28.226Z,1.00
2018-09-25T17:38:37.190Z,1.00
2018-09-25T17:43:45.929Z,1.00
2018-09-25T17:48:54.613Z,2.00
2018-09-25T17:54:03.441Z,1.00
2018-09-25T17:59:12.129Z,1.50
2018-09-25T18:04:20.908Z,1.00
2018-09-25T18:09:29.536Z,1.00
2018-09-25T18:14:38.223Z,2.00
2018-09-25T18:19:46.960Z,1.50
2018-09-25T18:24:55.771Z,1.25
2018-09-25T18:30:04.717Z,1.00
2018-09-25T18:35:13.653Z,1.00
2018-09-25T18:40:22.479Z,1.00
2018-09-25T18:45:31.239Z,1.00
2018-09-25T18:50:39.999Z,1.00
2018-09-25T18:55:48.856Z,2.25
2018-09-25T19:00:57.621Z,1.50
2018-09-25T19:06:06.455Z,2.00
2018-09-25T19:11:15.363Z,2.00
2018-09-25T19:16:24.194Z,2.00
2018-09-25T19:21:32.915Z,2.00
2018-09-25T19:26:41.595Z,1.20
2018-09-25T19:31:50.301Z,2.00
2018-09-25T19:36:59.012Z,2.00
2018-09-25T19:42:07.923Z,2.20
2018-09-25T19:47:16.791Z,2.00
2018-09-25T19:52:25.486Z,1.60
2018-09-25T19:57:34.436Z,2.00
2018-09-25T20:02:43.108Z,2.00
2018-09-25T20:07:52.077Z,2.00
2018-09-25T20:13:00.880Z,1.00
2018-09-25T20:18:09.637Z,2.00
2018-09-25T20:23:18.617Z,1.50
2018-09-25T20:28:27.390Z,1.00
2018-09-25T20:33:36.078Z,2.00
2018-09-25T20:38:44.801Z,2.00
2018-09-25T20:43:53.485Z,1.00
2018-09-25T20:49:02.277Z,2.00
2018-09-25T20:54:10.881Z,2.00
2018-09-25T20:59:19.717Z,1.40
2018-09-25T21:04:28.390Z,2.00
2018-09-25T21:09:37.084Z,2.00
2018-09-25T21:14:45.770Z,2.20
2018-09-25T21:19:54.467Z,2.00
2018-09-25T21:25:03.516Z,1.00
2018-09-25T21:30:12.383Z,1.80
2018-09-25T21:35:21.214Z,1.20
2018-09-25T21:40:30.068Z,1.00
2018-09-25T21:45:38.917Z,2.00
2018-09-25T21:50:47.736Z,1.40
2018-09-25T21:55:56.548Z,1.60
2018-09-25T22:01:05.402Z,2.00
2018-09-25T22:06:14.005Z,1.75
2018-09-25T22:11:22.694Z,1.00
2018-09-25T22:16:31.399Z,2.00
2018-09-25T22:21:40.410Z,1.00
2018-09-25T22:26:49.404Z,1.00
2018-09-25T22:31:58.320Z,1.75
2018-09-25T22:37:07.236Z,1.75
2018-09-25T22:42:15.976Z,1.00
2018-09-25T22:47:24.787Z,1.00
2018-09-25T22:52:33.639Z,1.50
2018-09-25T22:57:42.314Z,1.75
2018-09-25T23:02:50.974Z,1.00
2018-09-25T23:07:59.740Z,1.00
2018-09-25T23:13:08.544Z,1.00
2018-09-25T23:18:17.429Z,1.75
2018-09-25T23:23:26.125Z,1.00
2018-09-25T23:28:34.940Z,1.00
2018-09-25T23:33:43.654Z,1.00
2018-09-25T23:38:52.302Z,1.00
2018-09-25T23:44:01.183Z,1.00
2018-09-25T23:49:08.778Z,1.00
2018-09-25T23:54:16.872Z,1.50
2018-09-25T23:59:25.817Z,1.75
